createdAt,value
2023-05-20T00:02:02.692Z,151481.75
2023-05-20T00:04:32.757Z,151501.19
2023-05-20T00:07:01.488Z,151502.50
2023-05-20T00:09:30.755Z,151464.94
2023-05-20T00:11:59.724Z,151446.81
2023-05-20T00:14:28.745Z,151480.44
2023-05-20T00:16:56.772Z,151459.78
2023-05-20T00:19:42.318Z,151459.78
2023-05-20T00:22:48.009Z,151475.25
2023-05-20T00:25:17.072Z,151463.66
2023-05-20T00:27:51.214Z,151459.78
2023-05-20T00:30:19.416Z,151461.06
2023-05-20T00:32:53.732Z,151453.28
2023-05-20T00:35:23.352Z,151446.81
2023-05-20T00:37:51.441Z,151429.97
2023-05-20T00:40:20.940Z,151397.63
2023-05-20T00:42:49.072Z,151392.44
2023-05-20T00:45:17.282Z,151361.34
2023-05-20T00:47:45.828Z,151388.56
2023-05-20T00:50:24.751Z,151404.09
2023-05-20T00:52:55.488Z,151363.94
2023-05-20T00:55:23.792Z,151374.28
2023-05-20T00:57:53.263Z,151351.03
2023-05-20T01:00:21.345Z,151361.34
2023-05-20T01:02:49.750Z,151383.38
2023-05-20T01:05:18.030Z,151380.78
2023-05-20T01:07:47.687Z,151392.44
2023-05-20T01:10:15.639Z,151349.72
2023-05-20T01:12:47.486Z,151362.63
2023-05-20T01:15:17.214Z,151344.53
2023-05-20T01:17:47.296Z,151366.53
2023-05-20T01:20:16.643Z,151340.66
2023-05-20T01:22:55.507Z,151330.31
2023-05-20T01:25:25.060Z,151352.31
2023-05-20T01:27:54.321Z,151318.63
2023-05-20T01:30:23.185Z,151314.75
2023-05-20T01:32:56.193Z,151323.81
2023-05-20T01:35:24.464Z,151349.72
2023-05-20T01:37:54.674Z,151339.38
2023-05-20T01:40:23.661Z,151366.53
2023-05-20T01:42:53.634Z,151379.47
2023-05-20T01:45:22.530Z,151330.31
2023-05-20T01:47:51.211Z,151348.44
2023-05-20T01:50:19.295Z,151273.34
2023-05-20T01:52:47.229Z,151305.69
2023-05-20T01:55:16.799Z,151319.94
2023-05-20T01:57:45.047Z,151354.91
2023-05-20T02:00:13.833Z,151348.44
2023-05-20T02:02:41.834Z,151360.03
2023-05-20T02:05:10.990Z,151348.44
2023-05-20T02:07:39.093Z,151306.97
2023-05-20T02:10:08.839Z,151297.97
2023-05-20T02:12:38.827Z,151327.72
2023-05-20T02:15:08.170Z,151299.25
2023-05-20T02:17:36.618Z,151310.88
2023-05-20T02:20:06.652Z,151286.31
2023-05-20T02:22:37.195Z,151275.94
2023-05-20T02:25:06.044Z,151268.19
2023-05-20T02:27:34.062Z,151264.28
2023-05-20T02:30:04.078Z,151211.25
2023-05-20T02:32:33.700Z,151222.91
2023-05-20T02:35:01.875Z,151234.56
2023-05-20T02:37:30.046Z,151251.34
2023-05-20T02:39:58.271Z,151250.03
2023-05-20T02:42:26.702Z,151263.00
2023-05-20T02:44:58.412Z,151268.19
2023-05-20T02:47:30.520Z,151260.41
2023-05-20T02:49:59.158Z,151308.28
2023-05-20T02:52:27.486Z,151317.34
2023-05-20T02:54:56.494Z,151345.84
2023-05-20T02:57:24.634Z,151339.38
2023-05-20T02:59:52.952Z,151348.44
2023-05-20T03:02:21.230Z,151343.25
2023-05-20T03:04:50.800Z,151327.72
2023-05-20T03:07:19.878Z,151326.41
2023-05-20T03:09:48.084Z,151345.84
2023-05-20T03:12:16.494Z,151379.47
2023-05-20T03:14:44.610Z,151348.44
2023-05-20T03:17:12.587Z,151398.91
2023-05-20T03:19:40.686Z,151400.22
2023-05-20T03:22:11.681Z,151415.72
2023-05-20T03:24:40.608Z,151407.97
2023-05-20T03:27:09.611Z,151371.72
2023-05-20T03:29:37.941Z,151323.81
2023-05-20T03:32:08.769Z,151295.38
2023-05-20T03:34:39.522Z,151301.84
2023-05-20T03:37:08.054Z,151301.84
2023-05-20T03:39:40.302Z,151330.31
2023-05-20T03:42:08.444Z,151321.22
2023-05-20T03:44:39.296Z,151310.88
2023-05-20T03:47:07.489Z,151310.88
2023-05-20T03:49:41.567Z,151294.09
2023-05-20T03:52:09.543Z,151376.88
2023-05-20T03:54:42.250Z,151370.41
2023-05-20T03:57:10.782Z,151384.66
2023-05-20T03:59:40.243Z,151400.22
2023-05-20T04:02:08.239Z,151415.72
2023-05-20T04:04:36.535Z,151392.44
2023-05-20T04:07:05.033Z,151400.22
2023-05-20T04:09:33.282Z,151420.88
2023-05-20T04:12:05.306Z,151435.16
2023-05-20T04:14:35.502Z,151462.34
2023-05-20T04:17:04.074Z,151411.88
2023-05-20T04:19:32.021Z,151455.88
2023-05-20T04:22:01.402Z,151428.66
2023-05-20T04:24:29.479Z,151411.88
2023-05-20T04:26:57.554Z,151446.81
2023-05-20T04:29:26.955Z,151444.22
2023-05-20T04:31:58.930Z,151493.41
2023-05-20T04:34:27.190Z,151529.66
2023-05-20T04:36:55.410Z,151565.94
2023-05-20T04:39:23.405Z,151603.50
2023-05-20T04:41:52.068Z,151638.50
2023-05-20T04:44:20.148Z,151661.84
2023-05-20T04:46:49.938Z,151712.38
2023-05-20T04:49:19.325Z,151756.44
2023-05-20T04:51:50.133Z,151786.28
2023-05-20T04:54:18.402Z,151791.47
2023-05-20T04:56:47.948Z,151853.69
2023-05-20T04:59:16.029Z,151936.63
2023-05-20T05:01:44.244Z,151949.63
2023-05-20T05:04:13.653Z,152015.78
2023-05-20T05:06:44.846Z,152030.00
2023-05-20T05:09:15.334Z,152035.19
2023-05-20T05:11:51.311Z,152053.44
2023-05-20T05:14:22.307Z,152037.81
2023-05-20T05:16:50.548Z,152017.06
2023-05-20T05:20:21.523Z,152008.00
2023-05-20T05:23:58.200Z,152037.81
2023-05-20T05:27:22.942Z,152069.00
2023-05-20T05:29:53.438Z,152107.91
2023-05-20T05:32:21.653Z,152161.13
2023-05-20T05:34:50.124Z,152133.84
2023-05-20T05:37:18.244Z,152153.31
2023-05-20T05:39:46.829Z,152206.53
2023-05-20T05:42:17.089Z,152241.59
2023-05-20T05:44:46.855Z,152294.81
2023-05-20T05:47:18.509Z,152350.66
2023-05-20T05:49:47.321Z,152359.69
2023-05-20T05:52:15.810Z,152364.91
2023-05-20T05:54:44.260Z,152414.28
2023-05-20T05:57:12.336Z,152458.47
2023-05-20T05:59:40.565Z,152479.25
2023-05-20T06:02:11.086Z,152511.75
2023-05-20T06:04:40.679Z,152528.59
2023-05-20T06:07:09.710Z,152522.09
2023-05-20T06:09:39.086Z,152509.16
2023-05-20T06:12:08.511Z,152535.09
2023-05-20T06:14:36.527Z,152693.63
2023-05-20T06:17:05.884Z,152809.38
2023-05-20T06:19:33.954Z,152964.16
2023-05-20T06:22:03.511Z,152986.28
2023-05-20T06:24:31.582Z,153025.34
2023-05-20T06:27:00.921Z,153150.28
2023-05-20T06:29:32.366Z,153142.47
2023-05-20T06:32:01.811Z,153135.97
2023-05-20T06:34:29.820Z,153323.50
2023-05-20T06:36:58.144Z,153422.47
2023-05-20T06:39:27.630Z,153522.78
2023-05-20T06:41:55.908Z,153470.66
2023-05-20T06:44:24.242Z,153491.53
2023-05-20T06:46:54.504Z,153534.53
2023-05-20T06:49:22.628Z,153640.13
2023-05-20T06:51:50.726Z,153529.31
2023-05-20T06:54:18.952Z,153702.72
2023-05-20T06:56:48.280Z,153595.81
2023-05-20T06:59:16.312Z,153767.91
2023-05-20T07:01:45.836Z,153887.94
2023-05-20T07:04:14.850Z,153730.09
2023-05-20T07:06:43.024Z,153880.13
2023-05-20T07:09:11.103Z,153687.03
2023-05-20T07:11:40.652Z,153670.13
2023-05-20T07:14:10.260Z,153833.16
2023-05-20T07:16:38.492Z,153835.78
2023-05-20T07:19:06.620Z,154035.41
2023-05-20T07:21:34.688Z,153865.75
2023-05-20T07:24:02.737Z,153702.72
2023-05-20T07:26:33.600Z,153831.84
2023-05-20T07:29:02.010Z,153707.94
2023-05-20T07:31:32.065Z,153754.84
2023-05-20T07:34:00.559Z,153676.66
2023-05-20T07:36:29.092Z,153812.28
2023-05-20T07:39:03.553Z,153877.50
2023-05-20T07:41:34.254Z,153744.41
2023-05-20T07:44:03.662Z,153807.06
2023-05-20T07:46:33.273Z,153831.84
2023-05-20T07:49:01.530Z,153951.88
2023-05-20T07:51:29.591Z,154096.75
2023-05-20T07:53:58.096Z,154130.72
2023-05-20T07:56:28.444Z,154164.63
2023-05-20T07:58:59.286Z,154146.34
2023-05-20T08:01:32.274Z,154252.13
2023-05-20T08:04:01.952Z,154130.72
2023-05-20T08:06:30.216Z,153937.50
2023-05-20T08:08:58.855Z,154034.09
2023-05-20T08:11:26.760Z,154240.38
2023-05-20T08:13:55.381Z,154211.63
2023-05-20T08:16:23.518Z,154162.00
2023-05-20T08:18:51.813Z,154235.16
2023-05-20T08:21:21.730Z,154424.53
2023-05-20T08:23:49.874Z,154173.78
2023-05-20T08:26:17.954Z,154378.81
2023-05-20T08:28:46.849Z,154293.94
2023-05-20T08:31:17.964Z,154263.91
2023-05-20T08:33:46.018Z,154117.66
2023-05-20T08:36:14.016Z,154292.66
2023-05-20T08:38:43.676Z,154382.75
2023-05-20T08:41:12.041Z,154394.50
2023-05-20T08:43:40.203Z,154420.59
2023-05-20T08:46:09.824Z,154112.41
2023-05-20T08:48:38.534Z,154185.53
2023-05-20T08:51:11.295Z,154425.84
2023-05-20T08:53:39.446Z,154658.50
2023-05-20T08:56:13.020Z,154505.59
2023-05-20T08:58:43.138Z,154535.63
2023-05-20T09:01:11.358Z,154525.16
2023-05-20T09:03:39.422Z,154493.84
2023-05-20T09:06:08.930Z,154465.13
2023-05-20T09:08:40.379Z,154374.91
2023-05-20T09:11:13.327Z,154347.50
2023-05-20T09:13:41.487Z,154504.31
2023-05-20T09:16:11.269Z,154520.00
2023-05-20T09:18:40.175Z,154489.91
2023-05-20T09:21:08.841Z,154564.41
2023-05-20T09:23:38.965Z,154662.44
2023-05-20T09:26:07.144Z,154780.16
2023-05-20T09:28:38.620Z,154637.56
2023-05-20T09:31:07.776Z,154812.81
2023-05-20T09:33:38.095Z,154968.50
2023-05-20T09:36:08.859Z,154629.78
2023-05-20T09:38:39.702Z,154535.63
2023-05-20T09:41:09.386Z,154611.47
2023-05-20T09:43:40.906Z,154839.00
2023-05-20T09:46:09.869Z,154750.06
2023-05-20T09:48:38.461Z,154500.38
2023-05-20T09:51:10.037Z,154495.16
2023-05-20T09:53:38.289Z,154593.13
2023-05-20T09:56:07.000Z,154393.19
2023-05-20T09:58:36.746Z,154147.66
2023-05-20T10:01:07.702Z,154372.28
2023-05-20T10:03:36.235Z,154616.69
2023-05-20T10:06:20.490Z,154407.59
2023-05-20T10:09:11.740Z,154666.34
2023-05-20T10:12:03.611Z,154644.09
2023-05-20T10:14:50.889Z,154695.13
2023-05-20T10:17:26.628Z,154921.41
2023-05-20T10:20:01.390Z,154789.31
2023-05-20T10:22:32.698Z,154305.66
2023-05-20T10:25:24.767Z,154231.22
2023-05-20T10:31:46.102Z,154653.28
2023-05-20T10:34:18.684Z,154697.75
2023-05-20T10:36:49.335Z,154676.88
2023-05-20T10:39:18.485Z,154808.88
2023-05-20T10:41:46.458Z,154869.09
2023-05-20T10:44:14.478Z,154716.06
2023-05-20T10:49:24.009Z,154513.47
2023-05-20T10:51:55.573Z,154687.34
2023-05-20T10:54:24.066Z,154839.00
2023-05-20T10:56:55.608Z,154611.47
2023-05-20T10:59:24.257Z,154786.69
2023-05-20T11:01:54.696Z,154858.59
2023-05-20T11:04:24.756Z,154705.59
2023-05-20T11:06:56.023Z,154373.59
2023-05-20T11:09:24.035Z,154601.00
2023-05-20T11:11:55.147Z,154676.88
2023-05-20T11:14:23.332Z,154695.13
2023-05-20T11:16:54.772Z,154424.53
2023-05-20T11:19:24.746Z,154854.72
2023-05-20T11:21:53.520Z,155158.34
2023-05-20T11:24:27.109Z,155204.13
2023-05-20T11:26:55.908Z,155353.47
2023-05-20T11:29:24.159Z,155003.88
2023-05-20T11:31:52.343Z,154765.75
2023-05-20T11:34:25.030Z,154801.03
2023-05-20T11:36:59.709Z,155011.72
2023-05-20T11:39:32.718Z,154971.13
2023-05-20T11:42:01.001Z,154825.91
2023-05-20T11:44:29.063Z,154757.91
2023-05-20T11:47:01.682Z,155092.88
2023-05-20T11:49:30.958Z,155078.53
2023-05-20T11:52:00.700Z,155170.13
2023-05-20T11:54:28.884Z,155208.06
2023-05-20T11:56:57.152Z,154807.59
2023-05-20T11:59:25.843Z,154920.13
2023-05-20T12:01:54.138Z,155070.66
2023-05-20T12:04:22.439Z,155294.56
2023-05-20T12:06:51.073Z,154857.28
2023-05-20T12:09:22.837Z,154587.91
2023-05-20T12:11:51.004Z,154603.59
2023-05-20T12:14:18.984Z,154501.69
2023-05-20T12:16:46.927Z,154359.22
2023-05-20T12:19:17.412Z,154346.19
2023-05-20T12:21:47.368Z,154471.59
2023-05-20T12:24:15.414Z,154530.41
2023-05-20T12:26:44.745Z,154585.28
2023-05-20T12:29:12.804Z,154948.91
2023-05-20T12:31:42.053Z,155092.88
2023-05-20T12:34:10.237Z,155373.09
2023-05-20T12:36:39.879Z,155539.50
2023-05-20T12:39:08.405Z,155058.88
2023-05-20T12:41:36.692Z,155040.50
2023-05-20T12:44:06.841Z,155291.94
2023-05-20T12:46:39.829Z,155420.25
2023-05-20T12:49:08.197Z,154972.44
2023-05-20T12:51:37.578Z,155172.75
2023-05-20T12:54:05.656Z,155217.25
2023-05-20T12:56:33.640Z,155322.03
2023-05-20T12:59:02.132Z,154896.59
2023-05-20T13:01:31.909Z,155146.53
2023-05-20T13:04:00.004Z,155252.63
2023-05-20T13:06:28.188Z,155149.16
2023-05-20T13:08:56.164Z,155085.03
2023-05-20T13:11:25.069Z,154977.69
2023-05-20T13:13:53.174Z,154631.06
2023-05-20T13:16:21.166Z,154799.78
2023-05-20T13:18:51.763Z,154737.00
2023-05-20T13:21:20.156Z,154552.63
2023-05-20T13:23:50.087Z,154590.53
2023-05-20T13:26:18.731Z,154705.59
2023-05-20T13:28:47.025Z,154733.09
2023-05-20T13:31:14.980Z,154666.34
2023-05-20T13:33:43.166Z,154475.53
2023-05-20T13:36:12.470Z,154454.59
2023-05-20T13:38:40.538Z,154359.22
2023-05-20T13:41:12.388Z,154412.75
2023-05-20T13:43:42.179Z,154316.13
2023-05-20T13:46:10.356Z,154496.47
2023-05-20T13:48:38.681Z,154475.53
2023-05-20T13:51:06.867Z,154580.06
2023-05-20T13:53:38.464Z,154586.59
2023-05-20T13:56:09.286Z,154658.50
2023-05-20T13:58:38.557Z,154508.22
2023-05-20T14:03:36.625Z,155123.00
2023-05-20T14:06:10.231Z,154750.06
2023-05-20T14:08:41.232Z,154404.97
2023-05-20T14:11:13.963Z,154381.44
2023-05-20T14:13:42.105Z,154463.81
2023-05-20T14:16:11.882Z,154470.31
2023-05-20T14:18:42.712Z,154692.53
2023-05-20T14:21:11.749Z,154744.81
2023-05-20T14:23:45.222Z,154671.63
2023-05-20T14:26:14.638Z,154428.44
2023-05-20T14:28:42.734Z,154389.28
2023-05-20T14:31:12.340Z,154318.75
2023-05-20T14:33:41.460Z,154235.16
2023-05-20T14:36:09.607Z,154397.13
2023-05-20T14:38:39.607Z,154240.38
2023-05-20T14:41:18.441Z,154322.66
2023-05-20T14:43:51.172Z,154555.25
2023-05-20T14:46:21.704Z,154407.59
2023-05-20T14:48:49.810Z,154201.16
2023-05-20T14:51:17.873Z,154190.72
2023-05-20T14:53:45.965Z,154226.00
2023-05-20T14:56:21.692Z,154175.09
2023-05-20T14:58:49.878Z,154121.56
2023-05-20T15:01:19.408Z,154036.72
2023-05-20T15:03:47.749Z,154057.59
2023-05-20T15:06:16.246Z,154002.75
2023-05-20T15:08:44.357Z,154019.72
2023-05-20T15:11:12.514Z,154043.25
2023-05-20T15:13:42.082Z,154083.69
2023-05-20T15:16:27.355Z,154062.84
2023-05-20T15:19:03.866Z,154088.91
2023-05-20T15:21:39.416Z,154138.50
2023-05-20T15:24:09.730Z,154088.91
2023-05-20T15:26:50.096Z,154104.59
2023-05-20T15:29:31.653Z,154108.50
2023-05-20T15:32:32.546Z,154083.69
2023-05-20T15:35:02.534Z,154091.53
2023-05-20T15:37:30.980Z,154133.28
2023-05-20T15:39:59.428Z,154146.34
2023-05-20T15:42:27.673Z,154160.72
2023-05-20T15:44:57.166Z,154081.06
2023-05-20T15:47:27.438Z,154261.28
2023-05-20T15:49:57.382Z,154258.66
2023-05-20T15:52:25.432Z,154368.38
2023-05-20T15:54:53.575Z,154370.97
2023-05-20T15:57:24.395Z,154150.25
2023-05-20T15:59:52.502Z,154047.16
2023-05-20T16:02:22.059Z,154098.06
2023-05-20T16:04:50.243Z,154162.00
2023-05-20T16:07:19.447Z,154135.88
2023-05-20T16:09:47.676Z,154091.53
2023-05-20T16:12:17.929Z,154041.94
2023-05-20T16:14:46.010Z,154019.72
2023-05-20T16:17:14.222Z,153904.91
2023-05-20T16:19:43.871Z,153890.56
2023-05-20T16:22:11.945Z,153869.66
2023-05-20T16:24:40.138Z,153861.84
2023-05-20T16:27:09.190Z,153846.22
2023-05-20T16:29:37.442Z,153817.50
2023-05-20T16:32:05.752Z,153859.22
2023-05-20T16:34:33.951Z,153816.19
2023-05-20T16:37:03.182Z,153801.84
2023-05-20T16:39:31.241Z,153788.78
2023-05-20T16:41:59.266Z,153771.81
2023-05-20T16:44:27.263Z,153835.78
2023-05-20T16:46:57.022Z,153807.06
2023-05-20T16:49:25.080Z,153741.81
2023-05-20T16:51:53.211Z,153747.03
2023-05-20T16:54:22.713Z,153658.41
2023-05-20T16:56:52.842Z,153629.75
2023-05-20T16:59:20.935Z,153624.53
2023-05-20T17:01:49.969Z,153658.41
2023-05-20T17:04:18.045Z,153666.22
2023-05-20T17:06:46.147Z,153644.03
2023-05-20T17:09:14.426Z,153616.69
2023-05-20T17:11:43.862Z,153615.38
2023-05-20T17:14:11.951Z,153584.09
2023-05-20T17:16:40.179Z,153606.25
2023-05-20T17:19:08.134Z,153543.66
2023-05-20T17:21:36.431Z,153544.94
2023-05-20T17:24:05.263Z,153555.44
2023-05-20T17:26:33.406Z,153543.66
2023-05-20T17:29:02.728Z,153531.91
2023-05-20T17:31:30.678Z,153505.88
2023-05-20T17:33:58.796Z,153491.53
2023-05-20T17:36:27.130Z,153438.13
2023-05-20T17:38:55.026Z,153477.19
2023-05-20T17:41:26.337Z,153481.09
2023-05-20T17:43:55.680Z,153488.94
2023-05-20T17:46:25.129Z,153479.78
2023-05-20T17:48:53.051Z,153468.06
2023-05-20T17:51:21.152Z,153468.06
2023-05-20T17:53:49.026Z,153464.16
2023-05-20T17:56:17.024Z,153462.91
2023-05-20T17:58:45.557Z,153436.81
2023-05-20T18:01:15.061Z,153430.31
2023-05-20T18:03:44.786Z,153431.59
2023-05-20T18:06:12.946Z,153404.28
2023-05-20T18:08:42.451Z,153379.50
2023-05-20T18:11:10.590Z,153392.53
2023-05-20T18:13:39.981Z,153009.47
2023-05-20T18:16:09.319Z,152755.34
2023-05-20T18:18:38.486Z,148792.28
2023-05-20T18:21:10.095Z,144860.13
2023-05-20T18:23:37.998Z,144310.97
2023-05-20T18:26:07.148Z,139109.47
2023-05-20T18:28:35.134Z,146750.22
2023-05-20T18:31:02.924Z,141240.91
2023-05-20T18:33:31.892Z,136259.13
2023-05-20T18:35:59.971Z,126952.53
2023-05-20T18:38:29.585Z,100857.25
2023-05-20T18:40:57.509Z,95296.97
2023-05-20T18:43:26.572Z,109909.25
2023-05-20T18:45:54.592Z,107471.19
2023-05-20T18:48:27.099Z,99574.59
2023-05-20T18:50:55.581Z,103674.47
2023-05-20T18:53:23.994Z,97880.34
2023-05-20T18:55:56.039Z,84748.66
2023-05-20T18:58:24.142Z,82113.00
2023-05-20T19:00:52.314Z,85148.69
2023-05-20T19:03:21.345Z,92326.06
2023-05-20T19:05:49.957Z,82753.88
2023-05-20T19:08:39.948Z,79456.16
2023-05-20T19:11:32.264Z,75124.56
2023-05-20T19:14:00.847Z,75095.41
2023-05-20T19:16:28.955Z,108124.47
2023-05-20T19:18:57.130Z,109386.34
2023-05-20T19:21:25.110Z,118382.94
2023-05-20T19:23:53.153Z,140352.75
2023-05-20T19:26:22.611Z,146426.16
2023-05-20T19:28:51.624Z,149464.72
2023-05-20T19:31:21.996Z,148974.06
2023-05-20T19:33:50.144Z,153111.25
2023-05-20T19:36:19.646Z,153115.16
2023-05-20T19:38:47.963Z,153095.63
2023-05-20T19:41:16.332Z,153090.41
2023-05-20T19:43:46.271Z,153072.22
2023-05-20T19:46:14.584Z,153051.38
2023-05-20T19:48:42.824Z,153073.53
2023-05-20T19:51:11.538Z,153061.81
2023-05-20T19:53:39.739Z,153048.78
2023-05-20T19:56:08.396Z,153046.19
2023-05-20T19:58:36.642Z,153034.47
2023-05-20T20:01:06.865Z,153003.22
2023-05-20T20:03:35.227Z,153016.28
2023-05-20T20:06:04.134Z,152998.00
2023-05-20T20:08:32.725Z,153017.56
2023-05-20T20:11:00.992Z,153013.69
2023-05-20T20:13:29.388Z,153017.56
2023-05-20T20:15:57.529Z,153020.13
2023-05-20T20:18:27.143Z,153038.38
2023-05-20T20:20:59.811Z,153022.75
2023-05-20T20:23:29.804Z,153003.22
2023-05-20T20:26:13.789Z,152978.47
2023-05-20T20:28:42.250Z,153004.50
2023-05-20T20:31:26.603Z,153005.81
2023-05-20T20:34:02.335Z,152969.34
2023-05-20T20:36:39.774Z,152956.38
2023-05-20T20:39:08.396Z,152969.34
2023-05-20T20:41:38.691Z,152970.66
2023-05-20T20:44:08.339Z,152958.97
2023-05-20T20:46:38.153Z,152956.38
2023-05-20T20:49:07.549Z,152965.44
2023-05-20T20:51:35.635Z,152952.47
2023-05-20T20:54:03.916Z,152951.16
2023-05-20T20:56:37.238Z,152927.75
2023-05-20T20:59:08.302Z,152929.03
2023-05-20T21:01:37.841Z,152916.03
2023-05-20T21:04:09.661Z,152901.75
2023-05-20T21:06:40.845Z,152895.25
2023-05-20T21:09:09.608Z,152910.81
2023-05-20T21:11:38.418Z,152884.84
2023-05-20T21:14:09.090Z,152892.63
2023-05-20T21:16:37.267Z,152903.06
2023-05-20T21:19:09.121Z,152861.41
2023-05-20T21:21:39.268Z,152851.03
2023-05-20T21:24:10.343Z,152856.19
2023-05-20T21:26:39.580Z,152853.59
2023-05-20T21:29:10.032Z,152847.13
2023-05-20T21:31:38.162Z,152832.81
2023-05-20T21:34:06.763Z,152796.41
2023-05-20T21:36:34.944Z,152741.78
2023-05-20T21:39:05.040Z,152749.56
2023-05-20T21:41:33.257Z,152735.31
2023-05-20T21:44:01.293Z,152754.78
2023-05-20T21:46:29.394Z,152765.19
2023-05-20T21:48:59.628Z,152767.78
2023-05-20T21:51:29.000Z,152728.81
2023-05-20T21:53:57.164Z,152770.41
2023-05-20T21:56:26.550Z,152752.19
2023-05-20T21:58:55.890Z,152780.81
2023-05-20T22:01:23.888Z,152749.56
2023-05-20T22:03:53.374Z,152760.00
2023-05-20T22:06:23.989Z,152761.28
2023-05-20T22:08:52.137Z,152746.97
2023-05-20T22:11:21.591Z,152750.88
2023-05-20T22:13:51.047Z,152756.09
2023-05-20T22:16:19.145Z,152752.19
2023-05-20T22:18:49.722Z,152753.47
2023-05-20T22:21:17.885Z,152744.38
2023-05-20T22:23:46.067Z,152750.88
2023-05-20T22:26:14.164Z,152752.19
2023-05-20T22:28:42.272Z,152752.19
2023-05-20T22:31:12.307Z,152745.69
2023-05-20T22:33:42.462Z,152743.06
2023-05-20T22:36:10.618Z,152754.78
2023-05-20T22:38:38.725Z,152745.69
2023-05-20T22:41:10.292Z,152728.81
2023-05-20T22:43:40.147Z,152744.38
2023-05-20T22:46:08.883Z,152734.00
2023-05-20T22:48:38.707Z,152707.94
2023-05-20T22:51:08.934Z,152728.81
2023-05-20T22:53:37.451Z,152715.81
2023-05-20T22:56:06.624Z,152717.09
2023-05-20T22:58:39.481Z,152722.31
2023-05-20T23:01:08.365Z,152694.94
2023-05-20T23:03:36.434Z,152713.16
2023-05-20T23:06:06.554Z,152694.94
2023-05-20T23:08:35.054Z,152689.72
2023-05-20T23:11:03.034Z,152705.34
2023-05-20T23:13:31.445Z,152684.56
2023-05-20T23:15:59.414Z,152675.47
2023-05-20T23:18:27.684Z,152672.88
2023-05-20T23:20:55.946Z,152666.38
2023-05-20T23:23:31.053Z,152670.25
2023-05-20T23:26:01.632Z,152678.06
2023-05-20T23:28:29.827Z,152661.16
2023-05-20T23:30:57.859Z,152676.78
2023-05-20T23:33:26.244Z,152663.75
2023-05-20T23:35:54.427Z,152675.47
2023-05-20T23:38:22.845Z,152655.94
2023-05-20T23:40:55.178Z,152632.53
2023-05-20T23:43:23.180Z,152627.38
2023-05-20T23:45:51.230Z,152657.25
2023-05-20T23:48:19.884Z,152648.16
2023-05-20T23:50:48.278Z,152649.44
2023-05-20T23:53:17.117Z,152636.44
2023-05-20T23:55:45.463Z,152645.53
2023-05-20T23:58:14.748Z,152633.84
